Time;durP1;ratioP1;P1;durP2;ratioP2;P2;SDS_P1;SDS_P2;PMS_P1;PMS_P2;Temp;Humidity;BMP_temperature;BMP_pressure;BME280_temperature;BME280_humidity;BME280_pressure;Samples;Min_cycle;Max_cycle;Signal;HPM_P1;HPM_P2
2022/07/20 00:00:32;;;;;;;7.78;3.78;;;24.10;92.10;;;;;;4991399;28;20065;-75
2022/07/20 00:03:03;;;;;;;6.13;3.70;;;23.90;92.00;;;;;;4991483;28;20077;-74
2022/07/20 00:05:29;;;;;;;6.97;3.90;;;24.20;92.30;;;;;;4991606;28;20050;-75
2022/07/20 00:07:55;;;;;;;7.43;4.00;;;23.90;92.10;;;;;;4990541;28;20042;-74
2022/07/20 00:13:05;;;;;;;6.15;3.63;;;24.00;91.80;;;;;;4991736;28;20119;-74
2022/07/20 00:15:31;;;;;;;8.07;4.18;;;23.80;92.30;;;;;;4991613;28;20470;-74
2022/07/20 00:17:56;;;;;;;11.77;3.97;;;23.80;92.20;;;;;;4991667;28;20074;-75
2022/07/20 00:20:22;;;;;;;6.45;3.50;;;23.70;92.30;;;;;;4991758;28;20046;-77
2022/07/20 00:22:48;;;;;;;8.00;4.00;;;23.50;92.30;;;;;;4991419;28;20046;-75
2022/07/20 00:25:13;;;;;;;8.75;4.07;;;23.50;92.20;;;;;;4991402;28;20057;-72
2022/07/20 00:27:39;;;;;;;5.22;3.80;;;23.80;92.30;;;;;;4990258;28;20062;-73
2022/07/20 00:30:05;;;;;;;4.63;3.50;;;23.60;92.30;;;;;;4991124;28;20051;-75
2022/07/20 00:32:36;;;;;;;6.28;3.63;;;23.60;92.30;;;;;;4989978;28;20117;-75
2022/07/20 00:35:03;;;;;;;8.73;3.72;;;23.30;92.50;;;;;;4989857;28;20058;-76
2022/07/20 00:37:28;;;;;;;5.75;3.97;;;23.40;92.40;;;;;;4991290;28;20168;-75
2022/07/20 00:39:54;;;;;;;9.07;3.47;;;23.70;92.60;;;;;;4991111;28;20054;-74
2022/07/20 00:42:20;;;;;;;6.75;3.45;;;23.50;92.60;;;;;;4991258;28;20050;-75
2022/07/20 00:44:45;;;;;;;5.32;4.00;;;23.40;92.60;;;;;;4990861;28;20058;-75
2022/07/20 00:47:11;;;;;;;9.45;3.58;;;23.20;92.70;;;;;;4990191;28;20061;-76
2022/07/20 00:49:37;;;;;;;5.03;3.50;;;23.20;92.70;;;;;;4990842;28;20119;-76
2022/07/20 00:52:03;;;;;;;7.32;3.70;;;23.20;92.80;;;;;;4990992;28;20142;-78
2022/07/20 00:54:28;;;;;;;8.80;3.85;;;23.20;92.80;;;;;;5022536;28;20073;-75
2022/07/20 00:56:54;;;;;;;8.48;4.00;;;23.00;92.70;;;;;;4990773;28;20398;-75
2022/07/20 00:59:20;;;;;;;6.15;3.83;;;23.10;92.90;;;;;;4990700;28;20046;-75
2022/07/20 01:01:46;;;;;;;9.15;3.83;;;22.90;92.80;;;;;;4990858;28;20050;-77
2022/07/20 01:04:12;;;;;;;7.30;3.70;;;23.00;92.80;;;;;;4989808;28;20449;-75
2022/07/20 01:06:38;;;;;;;6.20;3.58;;;23.00;92.90;;;;;;4990614;28;20046;-76
2022/07/20 01:09:03;;;;;;;10.35;4.00;;;22.60;93.00;;;;;;4990923;28;20089;-76
2022/07/20 01:11:29;;;;;;;10.20;3.95;;;22.60;92.90;;;;;;4990505;28;20073;-74
2022/07/20 01:14:08;;;;;;;7.75;4.05;;;22.90;93.00;;;;;;4990346;28;20488;-76
2022/07/20 01:16:35;;;;;;;8.82;3.97;;;22.80;93.20;;;;;;4989381;28;20723;-74
2022/07/20 01:19:01;;;;;;;7.22;3.95;;;22.70;93.20;;;;;;4990445;28;20065;-74
2022/07/20 01:21:27;;;;;;;5.53;3.83;;;22.90;93.20;;;;;;4990708;28;20436;-75
2022/07/20 01:23:53;;;;;;;8.65;3.60;;;22.70;93.20;;;;;;4990388;28;20050;-75
2022/07/20 01:26:20;;;;;;;7.07;3.80;;;22.60;93.30;;;;;;4989058;28;20046;-73
2022/07/20 01:28:46;;;;;;;8.35;3.75;;;22.50;93.20;;;;;;4990183;28;20107;-75
2022/07/20 01:31:12;;;;;;;7.05;3.83;;;22.50;93.20;;;;;;4990322;28;20061;-76
2022/07/20 01:33:38;;;;;;;7.15;3.90;;;22.80;93.30;;;;;;4990448;28;20042;-75
2022/07/20 01:36:04;;;;;;;5.65;3.70;;;22.30;93.10;;;;;;4990385;28;20191;-75
2022/07/20 01:38:30;;;;;;;6.75;3.42;;;22.80;93.10;;;;;;4990361;28;20129;-75
2022/07/20 01:40:55;;;;;;;5.85;3.47;;;22.30;93.10;;;;;;4989138;28;20125;-74
2022/07/20 01:43:21;;;;;;;8.70;4.32;;;22.40;93.20;;;;;;4988538;28;20609;-74
2022/07/20 01:45:47;;;;;;;6.70;3.95;;;22.20;93.20;;;;;;4989643;28;20054;-75
2022/07/20 01:48:13;;;;;;;7.63;3.88;;;22.60;93.20;;;;;;4990269;28;20062;-75
2022/07/20 01:50:39;;;;;;;7.88;3.95;;;22.30;93.20;;;;;;4989996;28;20104;-75
2022/07/20 01:53:06;;;;;;;7.28;3.80;;;22.20;93.20;;;;;;4988772;28;20531;-75
2022/07/20 01:55:31;;;;;;;7.35;3.80;;;22.00;93.20;;;;;;4989931;28;20427;-76
2022/07/20 01:57:57;;;;;;;7.47;3.75;;;22.40;93.30;;;;;;4988654;28;20050;-78
2022/07/20 02:00:23;;;;;;;7.68;3.70;;;22.50;93.40;;;;;;4990027;28;20046;-76
2022/07/20 02:02:49;;;;;;;5.88;3.88;;;22.30;93.30;;;;;;4989899;28;20054;-74
2022/07/20 02:05:15;;;;;;;6.10;3.53;;;22.10;93.40;;;;;;4989219;28;20058;-76
2022/07/20 02:07:42;;;;;;;6.28;3.90;;;22.20;93.50;;;;;;4989998;28;20137;-72
2022/07/20 02:10:09;;;;;;;6.70;3.90;;;22.00;93.60;;;;;;4989854;28;20050;-77
2022/07/20 02:12:36;;;;;;;6.03;3.80;;;22.20;93.40;;;;;;4989656;28;20864;-74
2022/07/20 02:15:02;;;;;;;6.57;3.95;;;22.20;93.60;;;;;;4989796;28;20039;-74
2022/07/20 02:17:28;;;;;;;7.68;3.95;;;22.10;93.60;;;;;;4988765;28;20479;-75
2022/07/20 02:19:54;;;;;;;8.52;4.05;;;22.20;93.70;;;;;;4989687;28;20054;-70
2022/07/20 02:22:19;;;;;;;12.23;4.20;;;21.80;93.60;;;;;;4989673;28;20046;-75
2022/07/20 02:24:45;;;;;;;7.03;3.72;;;22.20;93.70;;;;;;4989528;28;20046;-76
2022/07/20 02:27:11;;;;;;;8.23;3.42;;;21.90;93.80;;;;;;4989474;28;20149;-75
2022/07/20 02:29:36;;;;;;;7.82;3.65;;;22.20;93.70;;;;;;4989458;28;20081;-74
2022/07/20 02:32:02;;;;;;;5.18;3.42;;;22.20;93.80;;;;;;4989486;28;20038;-73
2022/07/20 02:34:28;;;;;;;6.72;3.83;;;21.80;93.70;;;;;;4988292;28;20547;-75
2022/07/20 02:36:54;;;;;;;7.82;4.13;;;22.20;93.70;;;;;;4989232;28;20054;-75
2022/07/20 02:39:19;;;;;;;6.40;3.95;;;21.70;93.70;;;;;;4989453;28;20053;-73
2022/07/20 02:41:45;;;;;;;4.75;3.67;;;21.90;94.00;;;;;;4989182;28;20054;-75
2022/07/20 02:44:11;;;;;;;8.63;4.00;;;22.10;93.80;;;;;;4989594;28;20483;-76
2022/07/20 02:46:37;;;;;;;6.53;3.80;;;22.00;93.80;;;;;;4988969;28;20589;-80
2022/07/20 02:49:03;;;;;;;9.07;3.95;;;21.80;93.90;;;;;;4988111;28;20084;-75
2022/07/20 02:51:28;;;;;;;8.13;4.00;;;22.10;94.00;;;;;;4987874;28;20050;-75
2022/07/20 02:53:54;;;;;;;7.88;3.88;;;21.60;93.90;;;;;;4989053;28;20054;-76
2022/07/20 02:56:19;;;;;;;8.30;3.72;;;21.70;93.90;;;;;;4990426;28;20048;-76
2022/07/20 02:58:45;;;;;;;5.10;3.70;;;21.90;94.00;;;;;;4992727;28;20050;-75
2022/07/20 03:01:11;;;;;;;8.65;3.88;;;21.70;94.10;;;;;;4992677;28;20108;-76
2022/07/20 03:03:36;;;;;;;7.80;3.72;;;21.70;94.00;;;;;;4992660;28;20046;-75
2022/07/20 03:06:02;;;;;;;12.00;4.65;;;21.70;94.00;;;;;;4992496;28;20050;-73
2022/07/20 03:08:28;;;;;;;9.70;4.20;;;21.60;94.00;;;;;;4992422;28;20046;-76
2022/07/20 03:10:54;;;;;;;8.10;4.15;;;21.60;94.00;;;;;;4992305;28;20069;-76
2022/07/20 03:13:20;;;;;;;5.68;3.72;;;21.70;94.10;;;;;;4992336;28;20050;-75
2022/07/20 03:15:45;;;;;;;9.93;3.83;;;21.60;94.00;;;;;;4992152;28;20507;-75
2022/07/20 03:18:11;;;;;;;10.98;3.78;;;21.60;94.10;;;;;;4992432;28;20102;-76
2022/07/20 03:20:37;;;;;;;9.25;3.80;;;21.30;94.10;;;;;;4991293;28;20084;-76
2022/07/20 03:23:03;;;;;;;7.53;3.90;;;21.50;94.50;;;;;;4992244;28;20103;-76
2022/07/20 03:25:29;;;;;;;6.85;3.97;;;21.60;94.30;;;;;;4992126;28;20043;-74
2022/07/20 03:27:56;;;;;;;6.28;3.85;;;21.40;94.20;;;;;;4992123;28;20046;-76
2022/07/20 03:30:22;;;;;;;10.38;4.28;;;21.40;94.20;;;;;;4992018;28;20058;-75
2022/07/20 03:32:48;;;;;;;5.00;3.92;;;21.60;94.10;;;;;;4991896;28;20510;-76
2022/07/20 03:35:13;;;;;;;8.38;4.47;;;21.40;94.20;;;;;;4992165;28;20050;-73
2022/07/20 03:37:39;;;;;;;6.88;4.07;;;21.60;94.10;;;;;;4991985;28;20483;-72
2022/07/20 03:40:06;;;;;;;5.40;3.95;;;21.60;94.10;;;;;;4991993;28;20080;-69
2022/07/20 03:42:32;;;;;;;7.32;4.25;;;21.80;93.80;;;;;;4991938;28;20064;-76
2022/07/20 03:44:58;;;;;;;8.60;3.95;;;21.60;94.00;;;;;;4991779;28;20039;-73
2022/07/20 03:47:24;;;;;;;33.95;4.70;;;21.50;94.00;;;;;;4991905;28;20084;-74
2022/07/20 03:49:50;;;;;;;5.53;3.80;;;21.40;94.10;;;;;;4991949;28;20053;-74
2022/07/20 03:52:18;;;;;;;5.03;4.00;;;21.50;94.20;;;;;;4991768;28;20046;-75
2022/07/20 03:54:43;;;;;;;5.80;4.20;;;21.40;94.20;;;;;;4990574;28;20046;-77
2022/07/20 03:57:09;;;;;;;6.50;3.83;;;21.40;94.20;;;;;;4992174;28;20042;-75
2022/07/20 03:59:35;;;;;;;9.40;4.15;;;21.50;94.30;;;;;;4992092;28;20054;-78
2022/07/20 04:02:01;;;;;;;6.10;4.00;;;21.30;94.20;;;;;;4990902;28;20545;-77
2022/07/20 04:04:27;;;;;;;7.22;3.80;;;21.70;94.30;;;;;;4991747;28;20057;-77
2022/07/20 04:06:54;;;;;;;8.10;3.80;;;21.40;94.20;;;;;;4991189;28;20054;-77
2022/07/20 04:09:43;;;;;;;13.50;4.10;;;21.50;94.30;;;;;;4990386;28;20553;-77
2022/07/20 04:12:07;;;;;;;5.63;4.00;;;21.50;94.30;;;;;;4990472;28;20062;-76
2022/07/20 04:14:33;;;;;;;9.90;4.65;;;21.30;94.20;;;;;;4990305;28;20051;-75
2022/07/20 04:16:58;;;;;;;8.05;3.88;;;21.30;94.30;;;;;;4991403;28;20086;-74
2022/07/20 04:19:24;;;;;;;6.15;4.18;;;21.30;94.30;;;;;;4991459;28;20089;-71
2022/07/20 04:21:50;;;;;;;12.15;3.90;;;21.60;94.40;;;;;;4989990;28;20495;-77
2022/07/20 04:24:15;;;;;;;10.52;4.07;;;21.30;94.20;;;;;;4991498;28;20050;-77
2022/07/20 04:26:41;;;;;;;7.80;4.35;;;21.50;94.30;;;;;;4991313;28;20050;-77
2022/07/20 04:29:07;;;;;;;10.13;3.80;;;21.30;94.20;;;;;;4990359;28;20422;-76
2022/07/20 04:31:32;;;;;;;7.30;4.10;;;21.30;94.30;;;;;;4990099;28;20495;-77
2022/07/20 04:33:58;;;;;;;9.05;4.05;;;21.70;94.40;;;;;;4990083;28;20061;-76
2022/07/20 04:36:24;;;;;;;5.63;3.25;;;21.50;94.50;;;;;;4990060;28;20058;-72
2022/07/20 04:38:49;;;;;;;8.15;4.53;;;22.10;94.40;;;;;;4991347;28;20051;-76
2022/07/20 04:41:15;;;;;;;8.32;4.20;;;21.70;94.40;;;;;;4991286;28;20046;-76
2022/07/20 04:43:42;;;;;;;9.48;4.22;;;21.90;94.30;;;;;;4989716;28;20054;-69
2022/07/20 04:46:07;;;;;;;9.50;4.50;;;21.80;94.30;;;;;;4989727;28;20503;-75
2022/07/20 04:48:33;;;;;;;7.30;3.70;;;21.90;94.20;;;;;;4989951;28;20053;-75
2022/07/20 04:50:58;;;;;;;7.75;3.92;;;22.00;94.10;;;;;;4990764;28;20442;-76
2022/07/20 04:53:24;;;;;;;9.75;3.85;;;22.40;94.20;;;;;;4990805;28;20056;-76
2022/07/20 04:55:50;;;;;;;6.35;4.40;;;22.10;94.00;;;;;;4990860;28;20050;-77
2022/07/20 04:58:15;;;;;;;9.60;4.25;;;22.20;93.90;;;;;;4989898;28;20052;-78
2022/07/20 05:00:41;;;;;;;8.30;3.78;;;22.30;93.90;;;;;;4990727;28;20107;-75
2022/07/20 05:03:07;;;;;;;8.23;4.10;;;22.50;93.80;;;;;;4990740;28;20133;-75
2022/07/20 05:05:32;;;;;;;12.15;3.80;;;22.40;94.10;;;;;;4990567;28;20133;-76
2022/07/20 05:07:58;;;;;;;7.68;4.13;;;22.40;94.10;;;;;;4990873;28;20465;-77
2022/07/20 05:10:24;;;;;;;7.95;4.35;;;22.40;94.20;;;;;;4957432;28;20388;-75
2022/07/20 05:12:49;;;;;;;8.90;4.18;;;22.30;94.20;;;;;;4990756;28;20107;-76
2022/07/20 05:15:15;;;;;;;5.63;3.90;;;22.50;94.20;;;;;;4990371;28;20042;-76
2022/07/20 05:17:41;;;;;;;7.20;4.13;;;22.60;94.20;;;;;;5022170;28;20137;-76
2022/07/20 05:20:07;;;;;;;11.90;4.35;;;22.40;94.10;;;;;;4989589;28;20086;-75
2022/07/20 05:22:33;;;;;;;5.40;3.90;;;22.50;94.10;;;;;;4990347;28;20061;-76
2022/07/20 05:24:58;;;;;;;8.27;3.92;;;22.60;94.30;;;;;;4990537;28;20047;-76
2022/07/20 05:27:24;;;;;;;8.93;4.00;;;23.00;94.30;;;;;;4989380;28;20051;-72
2022/07/20 05:29:49;;;;;;;5.82;4.10;;;22.90;94.20;;;;;;4990464;28;20054;-76
2022/07/20 05:32:15;;;;;;;5.80;4.15;;;22.80;94.10;;;;;;4990318;28;20385;-77
2022/07/20 05:34:41;;;;;;;8.43;4.22;;;23.10;94.20;;;;;;4989082;28;20461;-76
2022/07/20 05:37:06;;;;;;;6.55;3.75;;;23.00;94.20;;;;;;4990237;28;20847;-77
2022/07/20 05:39:32;;;;;;;5.90;4.13;;;23.10;94.30;;;;;;5021791;28;20061;-77
2022/07/20 05:41:58;;;;;;;5.18;3.75;;;23.10;94.40;;;;;;4990394;28;20046;-74
2022/07/20 05:44:23;;;;;;;6.57;4.03;;;23.40;94.40;;;;;;4990165;28;20139;-74
2022/07/20 05:46:49;;;;;;;6.90;4.35;;;23.40;94.30;;;;;;4990019;28;20054;-74
2022/07/20 05:49:14;;;;;;;5.10;3.58;;;23.10;94.40;;;;;;4990285;28;20050;-74
2022/07/20 05:51:40;;;;;;;8.00;3.75;;;23.30;94.60;;;;;;4990045;28;20050;-74
2022/07/20 05:54:06;;;;;;;7.50;4.43;;;23.60;94.60;;;;;;4989942;28;20054;-74
2022/07/20 05:56:32;;;;;;;6.60;3.90;;;23.60;94.60;;;;;;4990065;28;20144;-74
2022/07/20 05:58:57;;;;;;;5.50;3.83;;;23.60;94.40;;;;;;5021151;28;20134;-75
2022/07/20 06:01:23;;;;;;;10.77;4.20;;;23.70;94.10;;;;;;5035021;28;20050;-75
2022/07/20 06:03:49;;;;;;;9.07;4.20;;;23.80;94.60;;;;;;5045442;28;20043;-75
2022/07/20 06:06:15;;;;;;;8.65;4.85;;;23.80;94.40;;;;;;5027223;28;20071;-74
2022/07/20 06:08:40;;;;;;;6.22;3.97;;;23.80;94.40;;;;;;5030926;28;20423;-75
2022/07/20 06:11:08;;;;;;;8.32;3.90;;;24.00;94.50;;;;;;5042843;28;20054;-75
2022/07/20 06:13:34;;;;;;;6.68;3.97;;;24.10;94.40;;;;;;5034731;28;20082;-76
2022/07/20 06:16:00;;;;;;;9.20;3.83;;;23.90;94.60;;;;;;5049546;28;20485;-73
2022/07/20 06:18:25;;;;;;;5.38;3.80;;;24.10;94.50;;;;;;5013430;28;20057;-73
2022/07/20 06:20:51;;;;;;;7.97;4.00;;;24.40;94.70;;;;;;5045413;28;20040;-74
2022/07/20 06:23:17;;;;;;;10.85;4.30;;;24.40;94.70;;;;;;5030164;28;20407;-74
2022/07/20 06:25:43;;;;;;;5.47;4.20;;;24.30;94.50;;;;;;5044847;28;20044;-73
2022/07/20 06:28:08;;;;;;;12.23;4.40;;;24.90;94.40;;;;;;5013149;28;20046;-72
2022/07/20 06:30:34;;;;;;;8.48;4.15;;;24.50;94.10;;;;;;5038473;28;20585;-71
2022/07/20 06:33:00;;;;;;;9.52;4.45;;;24.90;94.00;;;;;;5041334;28;20535;-74
2022/07/20 06:35:25;;;;;;;9.52;4.10;;;25.00;94.00;;;;;;5030868;28;20042;-70
2022/07/20 06:37:51;;;;;;;8.63;4.75;;;25.10;94.10;;;;;;5047525;28;20048;-73
2022/07/20 06:40:17;;;;;;;10.45;4.55;;;25.10;94.10;;;;;;5029978;28;20146;-74
2022/07/20 06:42:42;;;;;;;6.10;4.20;;;25.20;94.30;;;;;;5043058;28;20058;-73
2022/07/20 06:45:09;;;;;;;6.07;4.60;;;25.20;94.40;;;;;;5035503;28;20044;-74
2022/07/20 06:47:34;;;;;;;9.77;4.20;;;25.20;94.30;;;;;;5050393;28;20569;-75
2022/07/20 06:50:00;;;;;;;5.53;4.60;;;25.20;94.20;;;;;;5032084;28;20062;-75
2022/07/20 06:52:27;;;;;;;10.00;4.50;;;25.40;94.20;;;;;;5045644;28;20071;-72
2022/07/20 06:54:53;;;;;;;6.13;4.70;;;25.50;93.90;;;;;;5029549;28;20043;-74
2022/07/20 06:57:18;;;;;;;5.95;4.82;;;25.50;94.00;;;;;;5039476;28;20093;-78
2022/07/20 06:59:44;;;;;;;8.55;4.80;;;25.40;94.10;;;;;;5033893;28;20143;-74
2022/07/20 07:02:10;;;;;;;9.40;4.78;;;25.60;94.20;;;;;;5038183;28;20125;-69
2022/07/20 07:04:35;;;;;;;9.80;4.90;;;25.70;94.30;;;;;;5040532;28;20036;-75
2022/07/20 07:07:02;;;;;;;36.60;6.55;;;25.70;94.10;;;;;;5021320;28;20057;-76
2022/07/20 07:09:28;;;;;;;9.18;5.97;;;25.70;94.60;;;;;;5046473;28;20412;-75
2022/07/20 07:11:54;;;;;;;6.60;5.20;;;25.60;94.60;;;;;;5030030;28;20396;-76
2022/07/20 07:14:20;;;;;;;11.70;5.35;;;25.90;94.70;;;;;;5041046;28;20046;-75
2022/07/20 07:16:45;;;;;;;10.90;5.63;;;25.60;94.80;;;;;;5026564;28;20044;-75
2022/07/20 07:19:11;;;;;;;9.80;5.72;;;26.20;94.70;;;;;;5032673;28;20046;-72
2022/07/20 07:21:37;;;;;;;10.48;6.15;;;25.90;94.90;;;;;;5044681;28;20036;-75
2022/07/20 07:24:03;;;;;;;16.30;6.28;;;26.30;95.10;;;;;;5008504;28;20050;-74
2022/07/20 07:26:28;;;;;;;12.05;6.72;;;26.10;94.90;;;;;;4986448;28;20555;-73
2022/07/20 07:28:54;;;;;;;14.13;6.82;;;26.30;95.70;;;;;;4970300;28;20046;-73
2022/07/20 07:31:20;;;;;;;16.40;7.55;;;26.00;95.40;;;;;;4985329;28;20145;-71
2022/07/20 07:33:46;;;;;;;10.68;6.75;;;26.10;95.70;;;;;;4988163;28;20052;-76
2022/07/20 07:36:12;;;;;;;13.23;7.32;;;26.10;95.90;;;;;;4988811;28;20081;-74
2022/07/20 07:38:38;;;;;;;9.38;7.68;;;26.20;96.20;;;;;;4989161;28;20042;-75
2022/07/20 07:41:04;;;;;;;17.17;8.02;;;26.60;96.60;;;;;;4987875;28;20061;-73
2022/07/20 07:43:30;;;;;;;16.42;8.70;;;26.30;96.70;;;;;;4991673;28;20059;-74
2022/07/20 07:45:55;;;;;;;17.05;8.63;;;26.30;96.80;;;;;;4992050;28;20051;-73
2022/07/20 07:48:21;;;;;;;18.05;8.98;;;26.40;97.10;;;;;;4990795;28;20047;-77
2022/07/20 07:50:47;;;;;;;15.40;8.82;;;26.30;97.30;;;;;;4974752;28;20061;-77
2022/07/20 07:53:13;;;;;;;15.57;9.05;;;26.60;97.70;;;;;;4992008;28;20121;-75
2022/07/20 07:55:39;;;;;;;14.55;8.63;;;26.70;97.70;;;;;;4991638;28;20050;-73
2022/07/20 07:58:07;;;;;;;14.13;8.70;;;26.80;97.80;;;;;;4991623;28;20507;-74
2022/07/20 08:00:35;;;;;;;13.38;9.20;;;27.00;98.40;;;;;;4991719;28;20086;-73
2022/07/20 08:03:01;;;;;;;15.20;8.90;;;26.70;98.50;;;;;;4990461;28;20483;-73
2022/07/20 08:05:27;;;;;;;17.92;10.32;;;27.10;98.30;;;;;;4991808;28;20046;-75
2022/07/20 08:07:52;;;;;;;20.50;11.27;;;27.10;98.80;;;;;;4991602;28;20050;-73
2022/07/20 08:10:19;;;;;;;26.17;10.45;;;27.20;98.60;;;;;;4991688;28;20099;-76
2022/07/20 08:12:45;;;;;;;23.77;11.40;;;27.10;98.50;;;;;;4991502;28;20192;-77
2022/07/20 08:15:11;;;;;;;16.20;11.02;;;27.10;98.80;;;;;;4991427;28;20053;-73
2022/07/20 08:17:37;;;;;;;18.83;11.43;;;27.30;98.90;;;;;;4991248;28;20069;-72
2022/07/20 08:20:06;;;;;;;18.23;11.68;;;27.20;99.00;;;;;;4991502;28;20050;-74
2022/07/20 08:22:32;;;;;;;19.20;12.00;;;27.20;99.30;;;;;;4991451;28;20054;-72
2022/07/20 08:24:59;;;;;;;27.88;12.43;;;27.00;99.00;;;;;;4991359;28;20045;-72
2022/07/20 08:27:24;;;;;;;18.00;12.30;;;27.30;99.60;;;;;;4991356;28;20058;-70
2022/07/20 08:29:52;;;;;;;23.80;14.27;;;27.10;99.70;;;;;;4990066;28;20054;-74
2022/07/20 08:32:17;;;;;;;24.02;14.05;;;27.70;99.90;;;;;;4991126;28;20051;-72
2022/07/20 08:34:43;;;;;;;21.17;13.85;;;27.30;99.90;;;;;;4991015;28;20056;-73
2022/07/20 08:37:09;;;;;;;24.17;13.80;;;27.40;99.90;;;;;;4991277;28;20046;-72
2022/07/20 08:39:34;;;;;;;25.70;14.63;;;27.40;99.90;;;;;;4991127;28;20042;-73
2022/07/20 08:42:00;;;;;;;26.45;15.23;;;27.60;99.90;;;;;;4991189;28;20575;-72
2022/07/20 08:44:26;;;;;;;25.23;16.38;;;27.30;99.90;;;;;;4991024;28;20042;-71
2022/07/20 08:46:54;;;;;;;27.23;17.55;;;27.50;99.90;;;;;;5022224;28;20069;-71
2022/07/20 08:49:20;;;;;;;30.50;16.85;;;27.60;99.90;;;;;;4991212;28;20066;-71
2022/07/20 08:51:46;;;;;;;30.75;18.35;;;27.30;99.90;;;;;;4990830;28;20129;-72
2022/07/20 08:54:12;;;;;;;27.95;18.38;;;27.40;99.90;;;;;;4990933;28;20133;-72
2022/07/20 08:56:38;;;;;;;33.55;18.65;;;27.80;99.90;;;;;;4990765;28;20064;-72
2022/07/20 08:59:03;;;;;;;30.35;19.58;;;27.40;99.90;;;;;;4990736;28;20052;-70
2022/07/20 09:01:29;;;;;;;29.00;18.83;;;28.00;99.90;;;;;;4990631;28;20137;-70
2022/07/20 09:04:11;;;;;;;27.95;19.75;;;27.70;99.90;;;;;;4989749;28;20050;-72
2022/07/20 09:06:47;;;;;;;35.33;18.73;;;27.80;99.90;;;;;;4990875;28;20054;-70
2022/07/20 09:09:13;;;;;;;26.95;17.92;;;27.90;99.90;;;;;;4990691;28;20057;-70
2022/07/20 09:11:40;;;;;;;29.02;18.65;;;28.10;99.90;;;;;;4990702;28;20799;-70
2022/07/20 09:14:05;;;;;;;27.50;18.58;;;28.50;99.90;;;;;;4990415;28;20050;-70
2022/07/20 09:16:47;;;;;;;25.40;17.63;;;28.50;99.90;;;;;;4989678;28;20145;-73
2022/07/20 09:19:14;;;;;;;30.48;19.60;;;28.10;99.90;;;;;;4990607;28;20078;-70
2022/07/20 09:21:41;;;;;;;28.80;19.38;;;28.20;99.90;;;;;;4990513;28;20501;-71
2022/07/20 09:24:08;;;;;;;34.80;20.00;;;28.30;99.90;;;;;;4990580;28;20407;-70
2022/07/20 09:26:34;;;;;;;30.63;19.67;;;28.40;99.90;;;;;;4990456;28;20084;-70
2022/07/20 09:29:03;;;;;;;36.83;21.60;;;28.00;99.90;;;;;;4990822;28;20051;-69
2022/07/20 09:31:35;;;;;;;37.05;21.08;;;28.20;99.90;;;;;;4990328;28;20046;-69
2022/07/20 09:34:03;;;;;;;34.58;22.70;;;28.30;99.90;;;;;;4990315;28;20058;-70
2022/07/20 09:36:31;;;;;;;36.10;22.27;;;28.00;99.90;;;;;;4990401;28;20125;-71
2022/07/20 09:39:16;;;;;;;40.95;22.10;;;27.60;99.90;;;;;;4990058;28;20183;-71
2022/07/20 09:41:45;;;;;;;38.03;21.48;;;27.50;99.90;;;;;;4990428;28;20054;-69
2022/07/20 09:44:21;;;;;;;36.63;21.70;;;27.20;99.90;;;;;;4990173;28;20050;-69
2022/07/20 09:46:47;;;;;;;37.35;22.35;;;27.40;99.90;;;;;;4990320;28;20069;-69
2022/07/20 09:49:13;;;;;;;36.58;20.20;;;27.50;99.90;;;;;;4990179;28;20055;-70
2022/07/20 09:51:41;;;;;;;34.67;20.63;;;27.70;99.90;;;;;;4989867;28;20049;-70
2022/07/20 09:54:09;;;;;;;33.75;18.77;;;27.80;99.90;;;;;;4990105;28;20050;-72
2022/07/20 09:56:38;;;;;;;33.63;19.20;;;27.70;99.90;;;;;;4989901;28;20492;-71
2022/07/20 09:59:05;;;;;;;28.70;16.38;;;28.10;99.90;;;;;;4989955;28;20522;-70
2022/07/20 10:01:33;;;;;;;28.48;15.73;;;28.10;99.90;;;;;;4989913;28;20058;-70
2022/07/20 10:04:03;;;;;;;21.75;15.32;;;27.80;98.80;;;;;;4989743;28;20042;-69
2022/07/20 10:06:29;;;;;;;20.00;14.32;;;27.40;98.40;;;;;;4989391;28;20050;-69
2022/07/20 10:08:55;;;;;;;23.30;15.93;;;27.50;98.80;;;;;;4989871;28;20054;-69
2022/07/20 10:11:24;;;;;;;25.13;15.05;;;27.60;97.70;;;;;;4988456;28;20499;-69
2022/07/20 10:13:52;;;;;;;22.27;15.05;;;27.50;98.30;;;;;;4988639;28;20050;-69
2022/07/20 10:16:42;;;;;;;25.10;14.23;;;27.50;98.70;;;;;;4989581;28;20051;-71
2022/07/20 10:19:08;;;;;;;27.27;13.80;;;27.90;98.40;;;;;;4988569;28;20054;-70
2022/07/20 10:21:35;;;;;;;27.25;12.88;;;27.80;98.50;;;;;;4989611;28;20514;-70
2022/07/20 10:24:27;;;;;;;23.30;12.00;;;27.90;97.60;;;;;;4993585;28;20065;-70
2022/07/20 10:26:56;;;;;;;19.98;11.73;;;28.00;96.10;;;;;;5008769;28;20046;-68
2022/07/20 10:29:34;;;;;;;19.48;11.15;;;27.60;96.90;;;;;;5008904;28;20046;-70
2022/07/20 10:32:09;;;;;;;20.95;11.25;;;28.00;96.20;;;;;;5009091;28;20054;-69
2022/07/20 10:34:36;;;;;;;17.70;10.40;;;28.10;97.10;;;;;;5009064;28;20046;-69
2022/07/20 10:37:23;;;;;;;20.02;10.95;;;27.80;95.90;;;;;;5008872;28;20045;-68
2022/07/20 10:39:51;;;;;;;22.83;11.32;;;27.80;96.60;;;;;;5009099;28;20133;-69
2022/07/20 10:42:31;;;;;;;18.00;10.80;;;28.30;96.90;;;;;;5008773;28;20054;-69
2022/07/20 10:45:23;;;;;;;18.25;11.57;;;28.40;96.60;;;;;;5007883;28;20061;-70
2022/07/20 10:48:02;;;;;;;23.20;11.68;;;28.20;96.10;;;;;;5008778;28;20046;-69
2022/07/20 10:50:31;;;;;;;22.70;11.30;;;28.10;95.50;;;;;;5008998;28;20153;-69
2022/07/20 10:53:17;;;;;;;14.10;9.75;;;28.10;96.20;;;;;;5007674;28;20054;-70
2022/07/20 10:55:55;;;;;;;13.65;9.25;;;28.20;95.90;;;;;;5015180;28;20061;-70
2022/07/20 10:58:31;;;;;;;18.70;10.63;;;28.10;97.00;;;;;;5008556;28;20076;-71
2022/07/20 11:01:09;;;;;;;17.23;11.30;;;28.00;96.00;;;;;;5008827;28;20054;-70
2022/07/20 11:03:43;;;;;;;19.73;10.57;;;28.20;96.30;;;;;;5008674;28;20064;-70
2022/07/20 11:06:13;;;;;;;16.70;11.13;;;28.50;96.10;;;;;;5008598;28;20394;-70
2022/07/20 11:08:42;;;;;;;17.30;10.60;;;28.30;96.30;;;;;;5007468;28;20046;-70
2022/07/20 11:11:18;;;;;;;19.48;11.02;;;28.40;96.60;;;;;;5008803;28;20046;-70
2022/07/20 11:13:44;;;;;;;21.33;10.15;;;28.30;96.50;;;;;;5008804;28;20052;-70
2022/07/20 11:16:09;;;;;;;15.05;10.27;;;28.30;96.40;;;;;;5008645;28;20422;-70
2022/07/20 11:18:35;;;;;;;15.85;9.35;;;28.60;96.80;;;;;;5012010;28;20042;-70
2022/07/20 11:21:08;;;;;;;19.33;10.48;;;28.40;96.30;;;;;;5011835;28;20050;-71
2022/07/20 11:23:47;;;;;;;16.35;9.43;;;29.00;95.90;;;;;;5011934;28;20042;-70
2022/07/20 11:26:15;;;;;;;15.75;9.60;;;28.60;94.90;;;;;;5011860;28;20049;-70
2022/07/20 11:28:53;;;;;;;19.75;9.88;;;28.60;95.40;;;;;;5011808;28;20049;-69
2022/07/20 11:31:30;;;;;;;18.73;9.40;;;28.70;95.50;;;;;;5011812;28;20183;-69
2022/07/20 11:33:57;;;;;;;15.63;9.10;;;28.70;94.70;;;;;;5011531;28;20057;-70
2022/07/20 11:36:29;;;;;;;14.63;9.07;;;28.80;95.10;;;;;;5011686;28;20042;-70
2022/07/20 11:38:57;;;;;;;16.75;9.80;;;29.10;96.00;;;;;;5011582;28;20060;-69
2022/07/20 11:41:31;;;;;;;16.48;9.85;;;28.90;95.60;;;;;;5011523;28;20053;-70
2022/07/20 11:43:57;;;;;;;21.80;9.55;;;29.00;94.80;;;;;;5011641;28;20057;-69
2022/07/20 11:46:28;;;;;;;12.98;9.10;;;28.90;94.60;;;;;;5009966;28;20101;-69
2022/07/20 11:49:00;;;;;;;21.58;10.52;;;28.60;93.70;;;;;;5011664;28;20058;-68
2022/07/20 11:51:26;;;;;;;17.80;11.23;;;28.60;94.50;;;;;;5011449;28;20166;-69
2022/07/20 11:53:52;;;;;;;15.68;10.43;;;28.50;94.50;;;;;;5011431;28;20045;-70
2022/07/20 11:56:21;;;;;;;21.05;11.35;;;28.90;96.30;;;;;;5011295;28;20046;-69
2022/07/20 11:58:50;;;;;;;19.50;11.98;;;29.30;95.10;;;;;;5011247;28;20506;-69
2022/07/20 12:01:28;;;;;;;15.18;10.30;;;28.70;94.30;;;;;;5011431;28;20050;-67
2022/07/20 12:04:04;;;;;;;15.48;10.05;;;28.80;93.90;;;;;;5011317;28;20046;-68
2022/07/20 12:06:33;;;;;;;14.25;10.35;;;28.60;93.80;;;;;;5011336;28;20054;-69
2022/07/20 12:09:02;;;;;;;15.32;9.60;;;28.50;93.70;;;;;;5011080;28;20046;-68
2022/07/20 12:11:28;;;;;;;14.15;8.25;;;28.90;94.10;;;;;;5011190;28;20106;-69
2022/07/20 12:13:53;;;;;;;16.17;9.50;;;28.80;93.70;;;;;;5011012;28;20053;-69
2022/07/20 12:16:19;;;;;;;12.20;8.63;;;29.30;95.40;;;;;;5009816;28;20125;-69
2022/07/20 12:18:46;;;;;;;14.00;8.45;;;29.50;95.10;;;;;;5011249;28;20050;-68
2022/07/20 12:21:20;;;;;;;14.10;7.57;;;29.60;95.20;;;;;;5010907;28;20085;-71
2022/07/20 12:23:49;;;;;;;11.45;8.10;;;29.60;92.30;;;;;;5010864;28;20057;-70
2022/07/20 12:26:35;;;;;;;12.55;8.02;;;29.30;92.60;;;;;;5010882;28;20055;-68
2022/07/20 12:29:24;;;;;;;14.68;9.15;;;29.10;94.00;;;;;;5010223;28;20065;-69
2022/07/20 12:32:04;;;;;;;13.23;9.35;;;29.40;93.40;;;;;;5010967;28;20495;-69
2022/07/20 12:34:33;;;;;;;14.80;9.77;;;29.50;94.80;;;;;;5010709;28;20170;-69
2022/07/20 12:36:59;;;;;;;17.02;9.90;;;29.40;93.90;;;;;;5010621;28;20415;-68
2022/07/20 12:39:35;;;;;;;11.57;9.15;;;29.80;93.40;;;;;;5010683;28;20054;-69
2022/07/20 12:42:08;;;;;;;16.00;9.35;;;29.90;93.70;;;;;;5010655;28;20060;-69